createdAt,value
2022-09-20T00:00:24.602Z,13.4
2022-09-20T00:01:30.779Z,13.8
2022-09-20T00:02:36.941Z,13.4
2022-09-20T00:03:43.113Z,13.4
2022-09-20T00:04:49.276Z,13.8
2022-09-20T00:05:55.456Z,13.4
2022-09-20T00:07:01.649Z,13.8
2022-09-20T00:08:07.786Z,13.8
2022-09-20T00:09:14.005Z,13.4
2022-09-20T00:10:20.135Z,13.4
2022-09-20T00:11:26.309Z,13.4
2022-09-20T00:12:31.497Z,13.8
2022-09-20T00:13:37.656Z,13.8
2022-09-20T00:14:43.833Z,13.8
2022-09-20T00:15:50.002Z,13.4
2022-09-20T00:16:56.173Z,13.4
2022-09-20T00:18:02.348Z,13.4
2022-09-20T00:19:08.611Z,13.4
2022-09-20T00:20:14.689Z,13.4
2022-09-20T00:21:20.863Z,13.8
2022-09-20T00:22:27.035Z,13.4
2022-09-20T00:23:33.196Z,13.4
2022-09-20T00:24:39.368Z,13.4
2022-09-20T00:25:45.534Z,13.8
2022-09-20T00:26:50.711Z,13.4
2022-09-20T00:27:56.886Z,13.4
2022-09-20T00:29:03.062Z,13.1
2022-09-20T00:30:09.228Z,13.4
2022-09-20T00:31:15.403Z,13.4
2022-09-20T00:32:21.582Z,13.8
2022-09-20T00:33:27.730Z,13.8
2022-09-20T00:34:33.901Z,13.8
2022-09-20T00:35:40.083Z,13.1
2022-09-20T00:36:46.237Z,13.1
2022-09-20T00:37:52.421Z,13.4
2022-09-20T00:38:58.588Z,13.8
2022-09-20T00:40:04.762Z,13.1
2022-09-20T00:41:09.946Z,13.4
2022-09-20T00:42:16.119Z,13.4
2022-09-20T00:43:22.271Z,13.4
2022-09-20T00:44:28.454Z,13.1
2022-09-20T00:45:34.615Z,13.4
2022-09-20T00:46:40.791Z,13.1
2022-09-20T00:47:46.961Z,13.1
2022-09-20T00:48:53.126Z,13.4
2022-09-20T00:49:59.296Z,13.4
2022-09-20T00:51:05.473Z,13.4
2022-09-20T00:52:11.635Z,13.1
2022-09-20T00:53:17.803Z,13.4
2022-09-20T00:54:24.009Z,13.4
2022-09-20T00:55:29.159Z,13.1
2022-09-20T00:56:35.332Z,13.4
2022-09-20T00:57:41.498Z,13.1
2022-09-20T00:58:47.681Z,13.4
2022-09-20T00:59:53.852Z,13.1
2022-09-20T01:01:00.016Z,13.8
2022-09-20T01:02:06.189Z,13.1
2022-09-20T01:03:12.348Z,13.1
2022-09-20T01:04:18.524Z,13.1
2022-09-20T01:05:24.728Z,13.1
2022-09-20T01:06:30.859Z,13.4
2022-09-20T01:07:37.043Z,13.4
2022-09-20T01:08:43.213Z,13.1
2022-09-20T01:09:48.404Z,12.8
2022-09-20T01:10:54.569Z,13.1
2022-09-20T01:12:00.734Z,13.8
2022-09-20T01:13:06.897Z,13.1
2022-09-20T01:14:13.082Z,13.1
2022-09-20T01:15:19.242Z,13.1
2022-09-20T01:16:25.418Z,13.1
2022-09-20T01:17:31.588Z,13.1
2022-09-20T01:18:37.752Z,13.4
2022-09-20T01:19:43.920Z,13.1
2022-09-20T01:20:50.083Z,13.4
2022-09-20T01:21:56.322Z,13.1
2022-09-20T01:23:02.428Z,13.4
2022-09-20T01:24:07.655Z,13.4
2022-09-20T01:25:13.789Z,13.1
2022-09-20T01:26:19.943Z,12.8
2022-09-20T01:27:26.129Z,13.4
2022-09-20T01:28:32.295Z,13.4
2022-09-20T01:29:38.458Z,12.8
2022-09-20T01:30:44.641Z,13.4
2022-09-20T01:31:50.804Z,13.1
2022-09-20T01:32:56.962Z,13.1
2022-09-20T01:34:03.154Z,13.1
2022-09-20T01:35:09.329Z,13.1
2022-09-20T01:36:15.488Z,12.5
2022-09-20T01:37:21.661Z,13.1
2022-09-20T01:38:26.846Z,13.1
2022-09-20T01:39:33.011Z,13.1
2022-09-20T01:40:39.183Z,13.4
2022-09-20T01:41:45.350Z,12.8
2022-09-20T01:42:51.530Z,13.1
2022-09-20T01:43:57.679Z,13.1
2022-09-20T01:45:03.869Z,12.8
2022-09-20T01:46:10.039Z,13.1
2022-09-20T01:47:16.206Z,12.8
2022-09-20T01:48:22.382Z,12.8
2022-09-20T01:49:28.548Z,13.4
2022-09-20T01:50:34.721Z,13.1
2022-09-20T01:51:40.885Z,13.1
2022-09-20T01:52:46.061Z,13.1
2022-09-20T01:53:52.258Z,13.1
2022-09-20T01:54:58.400Z,12.8
2022-09-20T01:56:04.564Z,13.1
2022-09-20T01:57:10.752Z,13.4
2022-09-20T01:58:16.928Z,13.1
2022-09-20T01:59:23.080Z,12.8
2022-09-20T02:00:29.255Z,12.8
2022-09-20T02:01:35.415Z,13.1
2022-09-20T02:02:41.592Z,12.8
2022-09-20T02:03:47.755Z,13.1
2022-09-20T02:04:53.932Z,13.1
2022-09-20T02:06:00.120Z,13.1
2022-09-20T02:07:05.293Z,12.8
2022-09-20T02:08:11.460Z,13.1
2022-09-20T02:09:17.654Z,13.1
2022-09-20T02:10:23.823Z,13.1
2022-09-20T02:11:29.982Z,13.1
2022-09-20T02:12:36.141Z,13.1
2022-09-20T02:13:42.314Z,13.1
2022-09-20T02:14:48.476Z,13.4
2022-09-20T02:15:54.663Z,13.1
2022-09-20T02:17:00.821Z,12.8
2022-09-20T02:18:06.979Z,12.8
2022-09-20T02:19:13.150Z,12.8
2022-09-20T02:20:19.320Z,12.8
2022-09-20T02:21:24.520Z,12.8
2022-09-20T02:22:30.676Z,13.1
2022-09-20T02:23:36.847Z,12.8
2022-09-20T02:24:43.025Z,12.8
2022-09-20T02:25:49.195Z,13.1
2022-09-20T02:26:55.363Z,13.1
2022-09-20T02:28:00.556Z,12.8
2022-09-20T02:29:06.735Z,12.8
2022-09-20T02:30:12.898Z,13.1
2022-09-20T02:31:19.058Z,12.8
2022-09-20T02:32:25.241Z,13.1
2022-09-20T02:33:31.405Z,12.8
2022-09-20T02:34:37.563Z,13.1
2022-09-20T02:35:43.754Z,12.8
2022-09-20T02:37:56.091Z,13.1
2022-09-20T02:39:02.265Z,12.5
2022-09-20T02:40:08.428Z,12.8
2022-09-20T02:41:14.602Z,13.1
2022-09-20T02:42:19.779Z,13.1
2022-09-20T02:43:25.950Z,13.1
2022-09-20T02:44:32.135Z,12.5
2022-09-20T02:45:38.303Z,13.1
2022-09-20T02:46:44.457Z,12.8
2022-09-20T02:47:50.629Z,12.8
2022-09-20T02:48:56.806Z,12.5
2022-09-20T02:50:02.974Z,13.1
2022-09-20T02:51:09.147Z,12.8
2022-09-20T02:52:15.312Z,13.1
2022-09-20T02:53:21.479Z,12.8
2022-09-20T02:54:27.651Z,12.8
2022-09-20T02:55:33.829Z,12.5
2022-09-20T02:56:39.003Z,13.1
2022-09-20T02:57:45.178Z,12.8
2022-09-20T02:58:51.360Z,12.8
2022-09-20T02:59:57.519Z,13.1
2022-09-20T03:01:03.679Z,12.8
2022-09-20T03:02:09.868Z,12.8
2022-09-20T03:03:16.029Z,12.8
2022-09-20T03:04:22.186Z,12.8
2022-09-20T03:05:28.374Z,12.8
2022-09-20T03:06:34.549Z,12.8
2022-09-20T03:07:40.712Z,13.1
2022-09-20T03:08:46.886Z,12.8
2022-09-20T03:09:53.059Z,12.5
2022-09-20T03:10:58.224Z,12.8
2022-09-20T03:12:04.420Z,12.5
2022-09-20T03:13:10.588Z,13.1
2022-09-20T03:14:16.728Z,13.1
2022-09-20T03:15:22.917Z,12.5
2022-09-20T03:16:29.069Z,12.8
2022-09-20T03:17:35.251Z,12.8
2022-09-20T03:18:41.412Z,13.1
2022-09-20T03:19:47.593Z,12.8
2022-09-20T03:20:53.769Z,12.5
2022-09-20T03:21:59.936Z,12.5
2022-09-20T03:23:06.106Z,13.1
2022-09-20T03:24:12.266Z,12.1
2022-09-20T03:25:17.486Z,12.8
2022-09-20T03:26:23.622Z,12.8
2022-09-20T03:27:29.795Z,12.8
2022-09-20T03:28:35.970Z,12.8
2022-09-20T03:29:42.130Z,12.5
2022-09-20T03:30:48.310Z,12.5
2022-09-20T03:31:54.483Z,12.8
2022-09-20T03:33:00.643Z,12.8
2022-09-20T03:34:06.807Z,12.8
2022-09-20T03:35:12.983Z,12.5
2022-09-20T03:36:19.149Z,12.5
2022-09-20T03:37:25.324Z,12.8
2022-09-20T03:38:31.491Z,12.5
2022-09-20T03:39:36.684Z,12.1
2022-09-20T03:40:42.850Z,12.1
2022-09-20T03:41:49.019Z,12.5
2022-09-20T03:42:55.194Z,12.8
2022-09-20T03:44:01.354Z,12.8
2022-09-20T03:45:07.533Z,12.5
2022-09-20T03:46:13.698Z,12.8
2022-09-20T03:47:19.870Z,12.8
2022-09-20T03:48:26.038Z,12.5
2022-09-20T03:49:32.202Z,12.8
2022-09-20T03:50:38.379Z,12.5
2022-09-20T03:51:44.555Z,12.5
2022-09-20T03:52:50.720Z,12.8
2022-09-20T03:53:55.892Z,12.1
2022-09-20T03:55:02.063Z,12.1
2022-09-20T03:56:08.250Z,12.8
2022-09-20T03:57:14.412Z,12.8
2022-09-20T03:58:20.614Z,12.5
2022-09-20T03:59:26.753Z,12.1
2022-09-20T04:00:32.930Z,12.5
2022-09-20T04:01:39.094Z,12.8
2022-09-20T04:02:45.261Z,12.5
2022-09-20T04:03:51.435Z,12.5
2022-09-20T04:04:57.605Z,12.8
2022-09-20T04:06:03.773Z,12.8
2022-09-20T04:07:09.938Z,12.5
2022-09-20T04:08:15.133Z,12.8
2022-09-20T04:09:21.300Z,12.5
2022-09-20T04:10:27.460Z,12.5
2022-09-20T04:11:33.642Z,12.1
2022-09-20T04:12:39.799Z,12.5
2022-09-20T04:13:45.976Z,12.5
2022-09-20T04:14:52.159Z,12.1
2022-09-20T04:15:58.323Z,12.5
2022-09-20T04:17:04.486Z,12.1
2022-09-20T04:18:10.649Z,12.5
2022-09-20T04:19:16.836Z,12.5
2022-09-20T04:20:23.006Z,12.5
2022-09-20T04:21:29.166Z,12.1
2022-09-20T04:22:34.356Z,12.1
2022-09-20T04:23:40.518Z,12.8
2022-09-20T04:24:46.692Z,12.8
2022-09-20T04:25:52.872Z,12.5
2022-09-20T04:26:59.055Z,12.5
2022-09-20T04:28:05.199Z,12.1
2022-09-20T04:29:11.381Z,12.1
2022-09-20T04:30:17.538Z,12.5
2022-09-20T04:31:23.718Z,12.1
2022-09-20T04:32:29.889Z,12.5
2022-09-20T04:33:36.055Z,12.8
2022-09-20T04:34:42.213Z,12.5
2022-09-20T04:35:48.451Z,12.5
2022-09-20T04:36:53.570Z,12.5
2022-09-20T04:37:59.803Z,12.8
2022-09-20T04:39:05.921Z,12.8
2022-09-20T04:40:12.097Z,12.5
2022-09-20T04:41:18.246Z,12.5
2022-09-20T04:42:24.429Z,12.1
2022-09-20T04:43:30.589Z,12.1
2022-09-20T04:44:36.772Z,11.8
2022-09-20T04:45:42.942Z,12.5
2022-09-20T04:46:49.103Z,11.8
2022-09-20T04:47:55.272Z,12.1
2022-09-20T04:49:01.448Z,12.5
2022-09-20T04:50:07.687Z,12.1
2022-09-20T04:51:12.843Z,11.8
2022-09-20T04:52:18.958Z,12.8
2022-09-20T04:53:25.140Z,12.5
2022-09-20T04:54:31.311Z,12.5
2022-09-20T04:55:37.489Z,12.1
2022-09-20T04:56:43.659Z,12.1
2022-09-20T04:57:49.811Z,12.1
2022-09-20T04:58:55.999Z,11.8
2022-09-20T05:00:02.157Z,12.5
2022-09-20T05:01:08.322Z,12.1
2022-09-20T05:02:14.498Z,12.1
2022-09-20T05:03:20.669Z,12.5
2022-09-20T05:04:26.849Z,12.5
2022-09-20T05:05:32.022Z,12.5
2022-09-20T05:06:38.197Z,12.1
2022-09-20T05:07:44.353Z,12.5
2022-09-20T05:08:50.537Z,12.1
2022-09-20T05:09:56.713Z,12.5
2022-09-20T05:11:02.878Z,12.1
2022-09-20T05:12:09.039Z,11.8
2022-09-20T05:13:15.228Z,12.1
2022-09-20T05:14:21.400Z,11.8
2022-09-20T05:15:27.569Z,11.8
2022-09-20T05:16:33.726Z,12.5
2022-09-20T05:17:39.905Z,12.5
2022-09-20T05:18:46.067Z,11.8
2022-09-20T05:19:51.253Z,12.1
2022-09-20T05:20:57.420Z,12.5
2022-09-20T05:22:03.596Z,11.8
2022-09-20T05:23:09.757Z,12.1
2022-09-20T05:24:15.937Z,12.1
2022-09-20T05:25:22.091Z,12.5
2022-09-20T05:26:28.278Z,12.1
2022-09-20T05:27:34.439Z,12.5
2022-09-20T05:28:40.602Z,12.1
2022-09-20T05:29:46.778Z,12.1
2022-09-20T05:30:52.963Z,12.1
2022-09-20T05:31:59.115Z,12.1
2022-09-20T05:33:05.281Z,11.8
2022-09-20T05:34:10.465Z,12.5
2022-09-20T05:35:16.648Z,11.8
2022-09-20T05:36:22.812Z,12.5
2022-09-20T05:37:28.985Z,12.1
2022-09-20T05:38:35.148Z,11.8
2022-09-20T05:39:41.363Z,12.1
2022-09-20T05:40:47.511Z,11.8
2022-09-20T05:41:53.663Z,11.8
2022-09-20T05:42:59.835Z,11.8
2022-09-20T05:44:06.012Z,12.5
2022-09-20T05:45:12.179Z,12.1
2022-09-20T05:46:18.356Z,11.8
2022-09-20T05:47:24.523Z,11.8
2022-09-20T05:48:29.712Z,11.5
2022-09-20T05:49:35.864Z,11.8
2022-09-20T05:50:42.045Z,11.8
2022-09-20T05:51:48.212Z,12.5
2022-09-20T05:52:54.389Z,12.1
2022-09-20T05:54:00.555Z,11.5
2022-09-20T05:55:06.716Z,11.8
2022-09-20T05:56:12.882Z,11.8
2022-09-20T05:57:19.053Z,12.1
2022-09-20T05:58:25.235Z,11.8
2022-09-20T05:59:31.431Z,11.8
2022-09-20T06:00:37.574Z,12.1
2022-09-20T06:01:43.749Z,12.1
2022-09-20T06:02:48.922Z,12.1
2022-09-20T06:03:55.129Z,12.5
2022-09-20T06:05:01.273Z,12.1
2022-09-20T06:06:07.448Z,12.1
2022-09-20T06:07:13.626Z,11.8
2022-09-20T06:08:19.758Z,11.8
2022-09-20T06:09:24.971Z,11.8
2022-09-20T06:10:31.134Z,11.8
2022-09-20T06:11:37.307Z,11.8
2022-09-20T06:12:43.602Z,11.8
2022-09-20T06:13:49.778Z,11.8
2022-09-20T06:14:55.933Z,12.1
2022-09-20T06:16:02.103Z,12.1
2022-09-20T06:17:08.175Z,11.8
2022-09-20T06:18:14.334Z,11.8
2022-09-20T06:19:20.534Z,11.8
2022-09-20T06:20:26.663Z,12.1
2022-09-20T06:21:32.829Z,11.8
2022-09-20T06:22:38.993Z,11.8
2022-09-20T06:23:44.182Z,11.8
2022-09-20T06:24:50.362Z,12.1
2022-09-20T06:25:56.532Z,11.8
2022-09-20T06:27:02.684Z,11.8
2022-09-20T06:28:08.860Z,11.8
2022-09-20T06:29:15.042Z,11.5
2022-09-20T06:30:21.223Z,11.5
2022-09-20T06:31:27.383Z,11.8
2022-09-20T06:32:33.545Z,11.8
2022-09-20T06:33:39.718Z,11.5
2022-09-20T06:34:45.874Z,11.8
2022-09-20T06:35:52.087Z,12.1
2022-09-20T06:36:58.226Z,11.8
2022-09-20T06:38:03.405Z,11.8
2022-09-20T06:39:09.588Z,12.1
2022-09-20T06:40:15.761Z,12.1
2022-09-20T06:41:21.935Z,11.5
2022-09-20T06:42:28.102Z,11.8
2022-09-20T06:43:34.261Z,12.1
2022-09-20T06:44:40.434Z,11.8
2022-09-20T06:45:46.590Z,11.8
2022-09-20T06:46:52.768Z,11.5
2022-09-20T06:47:58.943Z,11.5
2022-09-20T06:49:05.153Z,11.8
2022-09-20T06:50:11.284Z,11.8
2022-09-20T06:51:17.444Z,11.8
2022-09-20T06:52:22.646Z,11.8
2022-09-20T06:53:28.806Z,11.5
2022-09-20T06:54:34.972Z,11.8
2022-09-20T06:55:41.150Z,11.5
2022-09-20T06:56:47.320Z,11.5
2022-09-20T06:57:53.482Z,11.8
2022-09-20T06:58:59.655Z,11.5
2022-09-20T07:00:05.838Z,11.5
2022-09-20T07:01:12.007Z,11.8
2022-09-20T07:02:18.169Z,11.8
2022-09-20T07:03:24.342Z,11.8
2022-09-20T07:04:30.501Z,11.8
2022-09-20T07:05:36.671Z,11.8
2022-09-20T07:06:41.859Z,11.8
2022-09-20T07:07:48.046Z,11.5
2022-09-20T07:08:54.202Z,11.8
2022-09-20T07:10:00.372Z,11.5
2022-09-20T07:11:06.542Z,11.2
2022-09-20T07:12:12.705Z,11.5
2022-09-20T07:13:18.881Z,11.8
2022-09-20T07:14:25.041Z,11.5
2022-09-20T07:15:31.220Z,11.5
2022-09-20T07:16:37.387Z,11.8
2022-09-20T07:17:43.565Z,11.5
2022-09-20T07:18:49.731Z,11.8
2022-09-20T07:19:56.047Z,11.5
2022-09-20T07:21:01.093Z,11.8
2022-09-20T07:22:07.257Z,12.1
2022-09-20T07:23:13.414Z,11.5
2022-09-20T07:24:19.597Z,12.1
2022-09-20T07:25:25.750Z,11.8
2022-09-20T07:26:31.937Z,11.5
2022-09-20T07:27:38.097Z,11.8
2022-09-20T07:28:44.276Z,11.5
2022-09-20T07:29:50.433Z,11.8
2022-09-20T07:30:56.610Z,11.5
2022-09-20T07:32:02.771Z,11.5
2022-09-20T07:33:08.945Z,11.8
2022-09-20T07:34:15.109Z,11.8
2022-09-20T07:35:20.292Z,11.5
2022-09-20T07:36:26.479Z,11.5
2022-09-20T07:37:32.650Z,11.5
2022-09-20T07:38:38.801Z,11.8
2022-09-20T07:39:44.972Z,11.5
2022-09-20T07:40:51.147Z,11.5
2022-09-20T07:41:57.325Z,11.5
2022-09-20T07:43:03.477Z,11.5
2022-09-20T07:44:09.647Z,11.8
2022-09-20T07:45:15.870Z,11.5
2022-09-20T07:46:21.995Z,11.8
2022-09-20T07:47:28.157Z,11.5
2022-09-20T07:48:34.346Z,11.8
2022-09-20T07:49:39.513Z,11.5
2022-09-20T07:50:45.690Z,11.8
2022-09-20T07:51:51.856Z,11.8
2022-09-20T07:52:58.027Z,11.5
2022-09-20T07:54:04.195Z,11.8
2022-09-20T07:55:10.384Z,11.8
2022-09-20T07:56:16.533Z,11.2
2022-09-20T07:57:22.698Z,11.8
2022-09-20T07:58:28.883Z,11.8
2022-09-20T07:59:35.037Z,11.8
2022-09-20T08:00:41.202Z,11.5
2022-09-20T08:01:47.410Z,11.5
2022-09-20T08:02:53.541Z,11.8
2022-09-20T08:03:58.726Z,11.2
2022-09-20T08:05:04.901Z,11.5
2022-09-20T08:06:11.076Z,11.5
2022-09-20T08:07:17.303Z,11.5
2022-09-20T08:08:23.416Z,11.5
2022-09-20T08:09:29.586Z,12.1
2022-09-20T08:10:35.761Z,11.5
2022-09-20T08:11:41.934Z,11.5
2022-09-20T08:12:48.085Z,11.2
2022-09-20T08:15:00.422Z,11.5
2022-09-20T08:16:06.596Z,11.5
2022-09-20T08:17:12.776Z,12.5
2022-09-20T08:18:17.958Z,11.2
2022-09-20T08:19:24.134Z,11.5
2022-09-20T08:20:30.300Z,11.2
2022-09-20T08:21:36.472Z,11.5
2022-09-20T08:22:42.639Z,11.8
2022-09-20T08:23:48.801Z,11.5
2022-09-20T08:24:54.978Z,11.5
2022-09-20T08:26:01.150Z,11.2
2022-09-20T08:27:07.307Z,11.2
2022-09-20T08:28:13.475Z,11.5
2022-09-20T08:29:19.653Z,11.5
2022-09-20T08:30:25.822Z,11.5
2022-09-20T08:31:31.988Z,11.5
2022-09-20T08:32:37.205Z,11.5
2022-09-20T08:33:43.333Z,11.8
2022-09-20T08:34:49.513Z,11.8
2022-09-20T08:35:55.685Z,11.5
2022-09-20T08:37:01.855Z,11.5
2022-09-20T08:38:08.034Z,11.8
2022-09-20T08:39:14.203Z,11.8
2022-09-20T08:40:20.352Z,12.1
2022-09-20T08:41:26.528Z,11.5
2022-09-20T08:42:32.705Z,11.5
2022-09-20T08:43:38.865Z,11.5
2022-09-20T08:44:45.039Z,11.5
2022-09-20T08:45:51.209Z,11.5
2022-09-20T08:46:56.381Z,11.5
2022-09-20T08:48:02.567Z,11.5
2022-09-20T08:49:08.742Z,11.5
2022-09-20T08:50:14.896Z,11.8
2022-09-20T08:51:21.074Z,11.5
2022-09-20T08:52:27.248Z,11.5
2022-09-20T08:53:33.403Z,11.5
2022-09-20T08:54:39.569Z,11.8
2022-09-20T08:55:45.739Z,11.5
2022-09-20T08:56:51.917Z,11.8
2022-09-20T08:57:58.089Z,11.2
2022-09-20T08:59:04.246Z,11.5
2022-09-20T09:00:10.420Z,11.5
2022-09-20T09:01:15.622Z,11.5
2022-09-20T09:02:21.787Z,11.8
2022-09-20T09:03:27.951Z,11.8
2022-09-20T09:04:34.107Z,11.5
2022-09-20T09:05:40.296Z,11.5
2022-09-20T09:06:46.479Z,11.8
2022-09-20T09:07:52.626Z,12.1
2022-09-20T09:08:58.781Z,11.8
2022-09-20T09:10:04.960Z,11.8
2022-09-20T09:11:11.146Z,11.5
2022-09-20T09:12:17.296Z,11.8
2022-09-20T09:13:23.478Z,11.8
2022-09-20T09:14:29.642Z,11.5
2022-09-20T09:15:34.825Z,11.8
2022-09-20T09:16:41.004Z,11.5
2022-09-20T09:17:47.157Z,11.8
2022-09-20T09:18:53.333Z,11.8
2022-09-20T09:19:59.506Z,11.5
2022-09-20T09:21:05.671Z,11.5
2022-09-20T09:22:11.863Z,11.8
2022-09-20T09:23:18.020Z,12.1
2022-09-20T09:24:24.184Z,11.8
2022-09-20T09:25:30.368Z,11.8
2022-09-20T09:26:36.526Z,11.8
2022-09-20T09:27:42.695Z,11.8
2022-09-20T09:28:48.903Z,11.5
2022-09-20T09:29:54.060Z,11.8
2022-09-20T09:31:00.226Z,11.5
2022-09-20T09:32:06.390Z,11.5
2022-09-20T09:33:12.554Z,11.8
2022-09-20T09:34:18.725Z,11.5
2022-09-20T09:35:24.910Z,11.2
2022-09-20T09:36:31.094Z,11.5
2022-09-20T09:37:37.246Z,11.5
2022-09-20T09:38:43.403Z,11.5
2022-09-20T09:39:49.570Z,11.8
2022-09-20T09:40:55.736Z,11.8
2022-09-20T09:42:01.905Z,11.8
2022-09-20T09:43:08.076Z,11.8
2022-09-20T09:44:13.281Z,11.8
2022-09-20T09:45:19.446Z,11.8
2022-09-20T09:46:25.660Z,11.5
2022-09-20T09:47:31.844Z,11.8
2022-09-20T09:48:38.068Z,11.5
2022-09-20T09:49:44.141Z,11.5
2022-09-20T09:50:49.368Z,11.5
2022-09-20T09:51:55.465Z,11.2
2022-09-20T09:53:01.648Z,11.5
2022-09-20T09:54:07.822Z,11.8
2022-09-20T09:55:14.077Z,11.2
2022-09-20T09:56:20.174Z,11.5
2022-09-20T09:57:26.325Z,11.8
2022-09-20T09:58:32.491Z,11.5
2022-09-20T09:59:38.672Z,11.5
2022-09-20T10:00:44.979Z,11.8
2022-09-20T10:01:51.000Z,11.5
2022-09-20T10:02:57.156Z,11.5
2022-09-20T10:04:03.390Z,11.5
2022-09-20T10:05:08.614Z,11.8
2022-09-20T10:06:14.685Z,11.8
2022-09-20T10:07:20.857Z,11.5
2022-09-20T10:08:27.035Z,11.8
2022-09-20T10:09:33.212Z,11.5
2022-09-20T10:10:39.377Z,11.8
2022-09-20T10:11:45.542Z,11.2
2022-09-20T10:12:51.710Z,11.5
2022-09-20T10:13:57.896Z,11.5
2022-09-20T10:15:04.053Z,11.5
2022-09-20T10:16:10.214Z,11.8
2022-09-20T10:17:16.403Z,11.5
2022-09-20T10:18:22.557Z,11.5
2022-09-20T10:19:27.737Z,11.5
2022-09-20T10:20:33.908Z,11.5
2022-09-20T10:21:40.075Z,11.5
2022-09-20T10:22:46.238Z,11.5
2022-09-20T10:23:52.428Z,11.8
2022-09-20T10:24:58.601Z,11.8
2022-09-20T10:26:04.747Z,11.5
2022-09-20T10:27:10.922Z,11.5
2022-09-20T10:28:17.100Z,11.5
2022-09-20T10:29:23.264Z,11.8
2022-09-20T10:30:29.439Z,11.2
2022-09-20T10:31:35.608Z,11.5
2022-09-20T10:32:41.786Z,12.1
2022-09-20T10:33:46.976Z,11.2
2022-09-20T10:34:53.144Z,11.5
2022-09-20T10:35:59.357Z,11.2
2022-09-20T10:37:05.460Z,11.2
2022-09-20T10:38:11.706Z,11.5
2022-09-20T10:39:17.827Z,11.5
2022-09-20T10:40:23.987Z,11.5
2022-09-20T10:41:30.241Z,11.5
2022-09-20T10:42:36.317Z,12.1
2022-09-20T10:43:42.491Z,11.8
2022-09-20T10:44:48.679Z,11.2
2022-09-20T10:45:54.812Z,11.5
2022-09-20T10:47:00.997Z,11.5
2022-09-20T10:48:06.165Z,11.2
2022-09-20T10:49:12.436Z,11.5
2022-09-20T10:50:18.652Z,11.5
2022-09-20T10:52:30.966Z,11.8
2022-09-20T10:53:37.064Z,11.5
2022-09-20T10:54:43.210Z,11.5
2022-09-20T10:55:49.396Z,11.5
2022-09-20T10:56:55.534Z,11.5
2022-09-20T10:58:01.704Z,11.5
2022-09-20T10:59:07.870Z,11.5
2022-09-20T11:00:14.049Z,11.5
2022-09-20T11:01:20.258Z,11.8
2022-09-20T11:02:25.383Z,11.8
2022-09-20T11:03:31.624Z,11.5
2022-09-20T11:04:37.755Z,11.8
2022-09-20T11:05:43.956Z,11.5
2022-09-20T11:06:50.070Z,11.8
2022-09-20T11:07:56.238Z,11.5
2022-09-20T11:09:02.415Z,11.8
2022-09-20T11:10:08.586Z,11.8
2022-09-20T11:11:14.760Z,11.8
2022-09-20T11:12:20.915Z,11.8
2022-09-20T11:13:27.088Z,11.5
2022-09-20T11:14:33.259Z,11.5
2022-09-20T11:15:39.439Z,11.8
2022-09-20T11:16:44.599Z,12.1
2022-09-20T11:17:50.841Z,12.5
2022-09-20T11:18:56.961Z,11.5
2022-09-20T11:20:03.103Z,11.8
2022-09-20T11:21:09.287Z,11.5
2022-09-20T11:22:15.457Z,11.5
2022-09-20T11:23:21.637Z,11.5
2022-09-20T11:24:27.800Z,11.8
2022-09-20T11:25:33.968Z,11.5
2022-09-20T11:26:40.122Z,11.8
2022-09-20T11:27:46.298Z,11.8
2022-09-20T11:28:52.464Z,11.8
2022-09-20T11:29:58.643Z,11.8
2022-09-20T11:31:03.896Z,11.8
2022-09-20T11:32:09.989Z,11.8
2022-09-20T11:33:16.172Z,11.5
2022-09-20T11:34:22.336Z,11.8
2022-09-20T11:35:28.545Z,11.8
2022-09-20T11:36:34.680Z,11.5
2022-09-20T11:37:40.856Z,11.5
2022-09-20T11:38:47.010Z,11.8
2022-09-20T11:39:53.275Z,11.8
2022-09-20T11:40:59.339Z,12.5
2022-09-20T11:42:05.513Z,11.8
2022-09-20T11:43:11.685Z,11.8
2022-09-20T11:44:17.857Z,12.1
2022-09-20T11:45:23.097Z,11.8
2022-09-20T11:46:29.214Z,11.8
2022-09-20T11:47:35.372Z,11.8
2022-09-20T11:48:41.556Z,11.5
2022-09-20T11:49:47.717Z,12.5
2022-09-20T11:50:53.890Z,12.1
2022-09-20T11:52:00.068Z,12.1
2022-09-20T11:53:06.220Z,11.8
2022-09-20T11:54:12.396Z,12.1
2022-09-20T11:55:18.565Z,12.1
2022-09-20T11:56:24.731Z,12.1
2022-09-20T11:57:30.918Z,11.8
2022-09-20T11:58:37.071Z,11.8
2022-09-20T11:59:42.263Z,11.8
2022-09-20T12:00:48.440Z,12.5
2022-09-20T12:01:54.596Z,12.5
2022-09-20T12:03:00.789Z,11.8
2022-09-20T12:04:06.935Z,12.1
2022-09-20T12:05:13.121Z,11.8
2022-09-20T12:06:19.291Z,11.8
2022-09-20T12:07:25.475Z,12.1
2022-09-20T12:08:31.613Z,11.8
2022-09-20T12:09:37.855Z,12.5
2022-09-20T12:10:43.955Z,11.8
2022-09-20T12:11:50.129Z,12.5
2022-09-20T12:12:56.296Z,12.1
2022-09-20T12:14:01.489Z,12.1
2022-09-20T12:15:07.644Z,11.8
2022-09-20T12:16:13.821Z,12.5
2022-09-20T12:17:19.989Z,12.1
2022-09-20T12:18:26.175Z,12.1
2022-09-20T12:19:32.323Z,12.5
2022-09-20T12:20:38.506Z,12.5
2022-09-20T12:21:44.677Z,11.5
2022-09-20T12:22:50.825Z,12.5
2022-09-20T12:23:57.013Z,12.1
2022-09-20T12:25:03.182Z,12.1
2022-09-20T12:26:09.332Z,12.5
2022-09-20T12:27:15.512Z,12.1
2022-09-20T12:28:20.702Z,12.1
2022-09-20T12:29:26.864Z,12.1
2022-09-20T12:30:33.043Z,12.1
2022-09-20T12:32:45.373Z,12.5
2022-09-20T12:33:51.554Z,12.1
2022-09-20T12:34:57.869Z,12.1
2022-09-20T12:36:03.891Z,12.1
2022-09-20T12:37:10.047Z,11.8
2022-09-20T12:38:16.216Z,12.1
2022-09-20T12:39:22.390Z,11.8
2022-09-20T12:40:28.559Z,12.5
2022-09-20T12:41:34.726Z,12.1
2022-09-20T12:42:39.908Z,12.5
2022-09-20T12:43:46.095Z,12.8
2022-09-20T12:44:52.245Z,12.1
2022-09-20T12:45:58.418Z,12.1
2022-09-20T12:47:04.620Z,12.1
2022-09-20T12:48:10.762Z,12.5
2022-09-20T12:49:16.975Z,12.5
2022-09-20T12:50:23.112Z,12.5
2022-09-20T12:51:29.276Z,12.1
2022-09-20T12:52:35.438Z,12.1
2022-09-20T12:53:41.614Z,12.5
2022-09-20T12:54:47.774Z,12.5
2022-09-20T12:55:53.944Z,12.5
2022-09-20T12:56:59.126Z,12.8
2022-09-20T12:58:05.306Z,12.1
2022-09-20T12:59:11.482Z,12.5
2022-09-20T13:00:17.654Z,12.8
2022-09-20T13:01:23.809Z,12.5
2022-09-20T13:02:29.978Z,12.5
2022-09-20T13:03:36.156Z,12.8
2022-09-20T13:04:42.319Z,12.5
2022-09-20T13:05:48.494Z,12.8
2022-09-20T13:06:54.672Z,12.1
2022-09-20T13:08:00.846Z,12.5
2022-09-20T13:09:07.014Z,12.5
2022-09-20T13:10:13.173Z,12.1
2022-09-20T13:12:24.529Z,12.5
2022-09-20T13:13:30.692Z,12.5
2022-09-20T13:14:36.869Z,12.5
2022-09-20T13:15:43.034Z,12.5
2022-09-20T13:16:49.358Z,12.8
2022-09-20T13:17:55.358Z,12.5
2022-09-20T13:19:01.539Z,12.5
2022-09-20T13:20:07.695Z,12.5
2022-09-20T13:21:13.875Z,12.8
2022-09-20T13:22:20.049Z,12.5
2022-09-20T13:23:26.211Z,12.8
2022-09-20T13:24:32.384Z,12.5
2022-09-20T13:25:37.574Z,13.1
2022-09-20T13:26:43.740Z,12.5
2022-09-20T13:27:49.908Z,12.5
2022-09-20T13:28:56.070Z,12.8
2022-09-20T13:30:02.298Z,12.5
2022-09-20T13:31:08.403Z,12.5
2022-09-20T13:32:13.610Z,12.8
2022-09-20T13:33:19.802Z,12.5
2022-09-20T13:34:25.961Z,12.5
2022-09-20T13:35:32.114Z,12.8
2022-09-20T13:36:38.276Z,12.5
2022-09-20T13:37:44.447Z,12.5
2022-09-20T13:38:50.622Z,12.8
2022-09-20T13:39:56.811Z,12.5
2022-09-20T13:41:02.949Z,12.8
2022-09-20T13:42:09.117Z,13.1
2022-09-20T13:43:15.293Z,12.8
2022-09-20T13:44:21.456Z,12.8
2022-09-20T13:45:27.640Z,12.8
2022-09-20T13:46:32.814Z,12.5
2022-09-20T13:47:38.987Z,12.8
2022-09-20T13:48:45.175Z,12.1
2022-09-20T13:49:51.333Z,12.8
2022-09-20T13:50:57.502Z,12.8
2022-09-20T13:52:03.659Z,12.8
2022-09-20T13:53:09.879Z,12.5
2022-09-20T13:54:15.999Z,12.8
2022-09-20T13:55:22.203Z,12.5
2022-09-20T13:56:28.357Z,13.1
2022-09-20T13:57:34.540Z,12.5
2022-09-20T13:58:40.742Z,12.8
2022-09-20T13:59:46.867Z,12.8
2022-09-20T14:00:52.047Z,13.1
2022-09-20T14:01:58.226Z,12.8
2022-09-20T14:03:04.386Z,12.5
2022-09-20T14:04:10.546Z,13.1
2022-09-20T14:05:16.730Z,12.5
2022-09-20T14:06:22.879Z,12.5
2022-09-20T14:07:29.057Z,13.1
2022-09-20T14:08:35.222Z,13.1
2022-09-20T14:09:41.388Z,13.1
2022-09-20T14:10:47.585Z,13.1
2022-09-20T14:11:53.732Z,12.8
2022-09-20T14:12:59.909Z,12.8
2022-09-20T14:14:06.088Z,12.8
2022-09-20T14:15:11.274Z,13.1
2022-09-20T14:16:17.416Z,13.1
2022-09-20T14:17:23.605Z,13.1
2022-09-20T14:18:29.771Z,12.8
2022-09-20T14:19:35.934Z,12.5
2022-09-20T14:20:42.097Z,12.8
2022-09-20T14:21:48.282Z,12.8
2022-09-20T14:22:54.442Z,13.1
2022-09-20T14:24:00.625Z,12.8
2022-09-20T14:25:06.799Z,13.1
2022-09-20T14:26:12.954Z,12.8
2022-09-20T14:27:19.121Z,12.8
2022-09-20T14:28:25.300Z,12.8
2022-09-20T14:29:30.525Z,13.1
2022-09-20T14:30:36.683Z,13.1
2022-09-20T14:31:42.820Z,13.1
2022-09-20T14:32:48.983Z,12.8
2022-09-20T14:33:55.170Z,13.1
2022-09-20T14:35:01.319Z,13.1
2022-09-20T14:36:07.492Z,13.1
2022-09-20T14:37:13.666Z,13.1
2022-09-20T14:38:19.832Z,13.1
2022-09-20T14:39:26.007Z,12.8
2022-09-20T14:40:32.178Z,13.1
2022-09-20T14:41:38.342Z,12.8
2022-09-20T14:42:44.577Z,12.5
2022-09-20T14:43:49.730Z,12.8
2022-09-20T14:44:55.877Z,13.1